Time;durP1;ratioP1;P1;durP2;ratioP2;P2;SDS_P1;SDS_P2;PMS_P1;PMS_P2;Temp;Humidity;BMP_temperature;BMP_pressure;BME280_temperature;BME280_humidity;BME280_pressure;Samples;Min_cycle;Max_cycle;Signal;HPM_P1;HPM_P2
2020/12/21 00:01:58;;;;;;;37.77;20.17;;;7.80;99.90;;;;;;5120318;28;20037;-65
2020/12/21 00:04:24;;;;;;;37.17;18.57;;;7.70;99.90;;;;;;5115967;28;20099;-65
2020/12/21 00:06:57;;;;;;;38.17;20.53;;;7.70;99.90;;;;;;5115914;28;20026;-65
2020/12/21 00:09:23;;;;;;;39.20;19.63;;;7.80;99.90;;;;;;5097296;28;20480;-65
2020/12/21 00:11:49;;;;;;;36.13;19.02;;;7.80;99.90;;;;;;5114994;28;20423;-65
2020/12/21 00:14:15;;;;;;;;;;;7.80;99.90;;;;;;5115275;28;20349;-65
2020/12/21 00:16:49;;;;;;;37.83;19.17;;;7.90;99.90;;;;;;5115070;28;19930;-65
2020/12/21 00:19:18;;;;;;;32.58;19.00;;;7.80;99.90;;;;;;5096751;28;20031;-65
2020/12/21 00:21:45;;;;;;;35.53;20.05;;;7.80;99.90;;;;;;5115890;28;20016;-65
2020/12/21 00:24:11;;;;;;;36.45;20.30;;;7.80;99.90;;;;;;5115651;28;20060;-64
2020/12/21 00:26:37;;;;;;;38.38;19.75;;;7.80;99.90;;;;;;5114624;28;20015;-65
2020/12/21 00:29:04;;;;;;;35.42;18.75;;;7.80;99.90;;;;;;5096367;28;20042;-64
2020/12/21 00:31:31;;;;;;;32.97;19.20;;;7.80;99.90;;;;;;5114530;28;20028;-65
2020/12/21 00:33:58;;;;;;;34.28;20.33;;;7.80;99.90;;;;;;5096133;28;20024;-65
2020/12/21 00:36:25;;;;;;;35.45;18.73;;;8.00;99.90;;;;;;5114533;28;20098;-65
2020/12/21 00:38:51;;;;;;;36.47;19.85;;;8.20;99.90;;;;;;5114305;28;20020;-64
2020/12/21 00:41:19;;;;;;;33.78;19.27;;;8.00;99.90;;;;;;5114219;28;20048;-65
2020/12/21 00:43:46;;;;;;;32.00;18.58;;;7.90;99.90;;;;;;5095865;28;20024;-64
2020/12/21 00:46:14;;;;;;;35.33;19.35;;;8.00;99.90;;;;;;5095963;28;20012;-64
2020/12/21 00:48:41;;;;;;;36.30;20.42;;;8.00;99.90;;;;;;5096031;28;20027;-64
2020/12/21 00:51:07;;;;;;;34.95;20.25;;;7.90;99.90;;;;;;5114472;28;20489;-64
2020/12/21 00:53:33;;;;;;;36.58;21.33;;;7.90;99.90;;;;;;5114218;28;20425;-65
2020/12/21 00:56:05;;;;;;;34.92;20.05;;;7.90;99.90;;;;;;5095787;28;20059;-64
2020/12/21 00:58:32;;;;;;;34.90;21.55;;;7.90;99.90;;;;;;5114416;28;20479;-64
2020/12/21 01:01:01;;;;;;;36.25;20.90;;;7.80;99.90;;;;;;5113847;28;20584;-65
2020/12/21 01:03:26;;;;;;;34.67;21.05;;;7.70;99.90;;;;;;5133881;22;20433;-70
2020/12/21 01:05:56;;;;;;;35.50;21.47;;;7.70;99.90;;;;;;5095971;28;20020;-70
2020/12/21 01:08:21;;;;;;;36.30;22.23;;;7.70;99.90;;;;;;5114068;28;20047;-70
2020/12/21 01:10:47;;;;;;;39.63;22.73;;;7.70;99.90;;;;;;5095794;28;20035;-70
2020/12/21 01:13:13;;;;;;;36.50;21.03;;;7.60;99.90;;;;;;5114281;28;20794;-69
2020/12/21 01:15:38;;;;;;;32.17;20.60;;;7.60;99.90;;;;;;5116823;28;20030;-70
2020/12/21 01:18:04;;;;;;;37.10;23.30;;;7.50;99.90;;;;;;5096484;28;20428;-69
2020/12/21 01:20:30;;;;;;;36.03;22.23;;;7.60;99.90;;;;;;5114015;28;20525;-70
2020/12/21 01:22:56;;;;;;;36.50;22.87;;;7.70;99.90;;;;;;5114095;28;20502;-71
2020/12/21 01:25:21;;;;;;;36.28;23.08;;;7.70;99.90;;;;;;5096679;28;20024;-70
2020/12/21 01:27:47;;;;;;;35.90;23.40;;;7.60;99.90;;;;;;5114705;28;20027;-70
2020/12/21 01:30:12;;;;;;;58.13;35.90;;;7.60;99.90;;;;;;5114497;28;20102;-70
2020/12/21 01:32:38;;;;;;;52.40;30.23;;;7.50;99.90;;;;;;5096254;28;20019;-70
2020/12/21 01:35:04;;;;;;;52.77;33.57;;;7.50;99.90;;;;;;5114546;28;20023;-70
2020/12/21 01:37:29;;;;;;;39.03;24.23;;;7.50;99.90;;;;;;5096534;28;20024;-70
2020/12/21 01:39:55;;;;;;;44.87;27.87;;;7.50;99.90;;;;;;5118133;28;20123;-70
2020/12/21 01:42:21;;;;;;;36.70;23.95;;;7.40;99.90;;;;;;5101021;28;20034;-70
2020/12/21 01:44:48;;;;;;;36.67;22.73;;;7.40;99.90;;;;;;5101320;28;20028;-72
2020/12/21 01:47:17;;;;;;;;;;;7.40;99.90;;;;;;5119064;28;20016;-69
2020/12/21 01:49:43;;;;;;;36.55;23.23;;;7.40;99.90;;;;;;5117373;28;19907;-69
2020/12/21 01:52:10;;;;;;;35.08;23.00;;;7.40;99.90;;;;;;5114558;28;20126;-71
2020/12/21 01:54:36;;;;;;;36.97;24.05;;;7.40;99.90;;;;;;5095715;28;20138;-70
2020/12/21 01:57:02;;;;;;;;;;;7.40;99.90;;;;;;5096840;28;20126;-71
2020/12/21 01:59:28;;;;;;;36.72;24.02;;;7.40;99.90;;;;;;5116011;28;19998;-71
2020/12/21 02:01:55;;;;;;;33.83;23.20;;;7.40;99.90;;;;;;5121340;28;20031;-70
2020/12/21 02:04:21;;;;;;;34.15;22.05;;;7.40;99.90;;;;;;5117982;28;20114;-71
2020/12/21 02:06:47;;;;;;;35.13;22.33;;;7.50;99.90;;;;;;5097610;28;20031;-70
2020/12/21 02:09:13;;;;;;;30.98;21.02;;;7.50;99.90;;;;;;5113863;28;20392;-70
2020/12/21 02:11:40;;;;;;;32.40;21.73;;;7.50;99.90;;;;;;5113657;28;20034;-70
2020/12/21 02:14:06;;;;;;;33.60;22.70;;;7.60;99.90;;;;;;5113402;28;20035;-70
2020/12/21 02:16:32;;;;;;;36.90;23.07;;;7.60;99.90;;;;;;5113167;28;20392;-70
2020/12/21 02:18:58;;;;;;;35.90;23.63;;;7.70;99.90;;;;;;5094895;28;20077;-70
2020/12/21 02:21:24;;;;;;;34.77;21.53;;;7.70;99.90;;;;;;5113122;28;20020;-70
2020/12/21 02:23:49;;;;;;;33.00;22.15;;;7.80;99.90;;;;;;5094579;28;20020;-69
2020/12/21 02:26:15;;;;;;;31.90;21.43;;;7.80;99.90;;;;;;5113592;28;20102;-70
2020/12/21 02:28:40;;;;;;;34.23;22.37;;;7.80;99.90;;;;;;5095281;28;20325;-69
2020/12/21 02:31:06;;;;;;;30.73;20.37;;;8.00;99.90;;;;;;5113094;28;20336;-69
2020/12/21 02:33:32;;;;;;;30.67;21.60;;;8.00;99.90;;;;;;5112838;28;20093;-69
2020/12/21 02:35:57;;;;;;;30.30;20.47;;;7.90;99.90;;;;;;5095614;28;20047;-70
2020/12/21 02:38:23;;;;;;;31.40;21.93;;;7.90;99.90;;;;;;5116782;28;20426;-69
2020/12/21 02:40:49;;;;;;;31.73;21.70;;;7.80;99.90;;;;;;5099556;28;20038;-70
2020/12/21 02:43:15;;;;;;;29.65;21.15;;;7.80;99.90;;;;;;5098218;28;20028;-69
2020/12/21 02:45:41;;;;;;;33.78;22.23;;;7.80;99.90;;;;;;5116657;28;20507;-69
2020/12/21 02:48:06;;;;;;;33.15;21.70;;;7.90;99.90;;;;;;5098604;28;20051;-69
2020/12/21 02:50:33;;;;;;;31.37;20.87;;;7.90;99.90;;;;;;5116704;28;20043;-69
2020/12/21 02:52:58;;;;;;;28.42;19.95;;;7.90;99.90;;;;;;5098326;28;20318;-70
2020/12/21 02:55:24;;;;;;;31.37;20.27;;;7.90;99.90;;;;;;5116911;28;20027;-69
2020/12/21 02:57:50;;;;;;;27.97;20.10;;;7.90;99.90;;;;;;5116219;28;20051;-69
2020/12/21 03:00:16;;;;;;;27.27;19.10;;;7.90;99.90;;;;;;5116300;28;20012;-70
2020/12/21 03:02:42;;;;;;;28.10;19.95;;;7.90;99.90;;;;;;5116238;28;20027;-70
2020/12/21 03:05:07;;;;;;;30.60;20.23;;;7.90;99.90;;;;;;5098510;28;20062;-70
2020/12/21 03:07:33;;;;;;;28.85;19.73;;;8.00;99.90;;;;;;5098172;28;20043;-70
2020/12/21 03:09:59;;;;;;;29.55;19.35;;;7.90;99.90;;;;;;5098932;28;20027;-69
2020/12/21 03:12:24;;;;;;;31.30;19.50;;;7.90;99.90;;;;;;5101276;28;20035;-69
2020/12/21 03:14:50;;;;;;;27.07;18.07;;;7.90;99.90;;;;;;5118288;28;20027;-70
2020/12/21 03:17:16;;;;;;;27.57;19.37;;;7.90;99.90;;;;;;5099306;28;20024;-70
2020/12/21 03:19:41;;;;;;;28.77;19.57;;;7.80;99.90;;;;;;5117826;28;20027;-70
2020/12/21 03:22:07;;;;;;;28.43;19.83;;;7.80;99.90;;;;;;5116019;28;20119;-70
2020/12/21 03:24:33;;;;;;;27.33;18.90;;;7.80;99.90;;;;;;5115597;28;20024;-70
2020/12/21 03:26:58;;;;;;;27.97;19.07;;;7.80;99.90;;;;;;5101233;28;20026;-70
2020/12/21 03:29:24;;;;;;;32.27;19.67;;;7.80;99.90;;;;;;5100562;28;20392;-70
2020/12/21 03:31:50;;;;;;;26.83;18.23;;;7.80;99.90;;;;;;5097134;28;20024;-70
2020/12/21 03:34:16;;;;;;;27.83;17.97;;;8.00;99.90;;;;;;5115235;28;20028;-69
2020/12/21 03:36:42;;;;;;;30.33;18.75;;;8.00;99.90;;;;;;5096929;28;20020;-69
2020/12/21 03:39:08;;;;;;;;;;;8.00;99.90;;;;;;5115758;28;20484;-69
2020/12/21 03:41:34;;;;;;;28.40;18.80;;;8.00;99.90;;;;;;5115258;28;19910;-69
2020/12/21 03:44:00;;;;;;;30.10;19.40;;;7.90;99.90;;;;;;5115105;28;20507;-69
2020/12/21 03:46:25;;;;;;;29.93;19.50;;;7.90;99.90;;;;;;5097085;28;20019;-70
2020/12/21 03:48:51;;;;;;;27.80;19.70;;;7.90;99.90;;;;;;5114045;28;20020;-70
2020/12/21 03:51:16;;;;;;;25.23;18.67;;;7.90;99.90;;;;;;5096725;28;20164;-69
2020/12/21 03:53:42;;;;;;;29.03;19.30;;;7.80;99.90;;;;;;5115039;28;20070;-70
2020/12/21 03:56:08;;;;;;;27.93;19.43;;;7.90;99.90;;;;;;5096646;28;20123;-70
2020/12/21 03:58:33;;;;;;;29.40;19.40;;;7.90;99.90;;;;;;5114933;28;20077;-70
2020/12/21 04:01:00;;;;;;;27.60;18.60;;;7.80;99.90;;;;;;5096720;28;20476;-70
2020/12/21 04:03:28;;;;;;;27.48;18.48;;;7.80;99.90;;;;;;5096300;28;20088;-69
2020/12/21 04:05:53;;;;;;;26.42;18.17;;;7.90;99.90;;;;;;5115147;28;20023;-70
2020/12/21 04:08:19;;;;;;;27.03;17.40;;;7.90;99.90;;;;;;5116956;28;20031;-70
2020/12/21 04:10:46;;;;;;;28.63;19.13;;;7.80;99.90;;;;;;5114751;28;20027;-70
2020/12/21 04:13:12;;;;;;;27.75;18.02;;;7.90;99.90;;;;;;5096085;28;20047;-70
2020/12/21 04:15:38;;;;;;;23.88;16.77;;;7.90;99.90;;;;;;5096446;28;20027;-69
2020/12/21 04:18:03;;;;;;;24.50;18.47;;;7.90;99.90;;;;;;5114758;28;20034;-69
2020/12/21 04:20:29;;;;;;;29.37;18.93;;;7.90;99.90;;;;;;5114790;28;20027;-69
2020/12/21 04:22:55;;;;;;;27.13;17.87;;;7.80;99.90;;;;;;5114688;28;20281;-69
2020/12/21 04:25:20;;;;;;;25.83;16.07;;;7.80;99.90;;;;;;5114427;28;20024;-69
2020/12/21 04:27:46;;;;;;;22.13;15.53;;;7.80;99.90;;;;;;5114498;28;20024;-69
2020/12/21 04:30:12;;;;;;;23.77;15.93;;;7.70;99.90;;;;;;5114257;28;20027;-69
2020/12/21 04:32:38;;;;;;;22.75;16.77;;;7.80;99.90;;;;;;5096055;28;20073;-69
2020/12/21 04:35:03;;;;;;;26.43;17.13;;;7.80;99.90;;;;;;5114337;28;20357;-70
2020/12/21 04:37:29;;;;;;;22.00;14.97;;;7.70;99.90;;;;;;5113956;28;20068;-69
2020/12/21 04:39:55;;;;;;;27.33;17.98;;;7.80;99.90;;;;;;5114421;28;20016;-69
2020/12/21 04:42:24;;;;;;;31.63;19.67;;;7.90;99.90;;;;;;5114437;28;20102;-69
2020/12/21 04:44:51;;;;;;;32.58;19.75;;;7.90;99.90;;;;;;5113945;28;20019;-68
2020/12/21 04:47:17;;;;;;;28.95;18.30;;;7.90;99.90;;;;;;5113860;28;20479;-69
2020/12/21 04:49:44;;;;;;;29.15;17.58;;;7.80;99.90;;;;;;5095832;28;20031;-69
2020/12/21 04:52:11;;;;;;;34.35;21.85;;;7.70;99.90;;;;;;5095403;28;20081;-70
2020/12/21 04:54:37;;;;;;;26.73;17.30;;;7.70;99.90;;;;;;5095609;28;20034;-70
2020/12/21 04:57:03;;;;;;;30.27;18.50;;;7.80;99.90;;;;;;5113755;28;20027;-69
2020/12/21 04:59:29;;;;;;;26.38;17.58;;;7.70;99.90;;;;;;5094994;28;20028;-69
2020/12/21 05:01:55;;;;;;;18.63;13.60;;;7.70;99.90;;;;;;5095463;28;20051;-69
2020/12/21 05:04:22;;;;;;;21.03;13.70;;;7.70;99.90;;;;;;5113644;28;20535;-69
2020/12/21 05:06:53;;;;;;;23.27;14.25;;;7.70;99.90;;;;;;5095636;28;20047;-69
2020/12/21 05:09:22;;;;;;;24.95;16.60;;;7.70;99.90;;;;;;5095356;28;20497;-70
2020/12/21 05:12:02;;;;;;;23.38;15.98;;;7.70;99.90;;;;;;5114056;28;20395;-70
2020/12/21 05:14:36;;;;;;;23.20;16.05;;;7.60;99.90;;;;;;5113669;28;20053;-69
2020/12/21 05:17:12;;;;;;;27.27;18.83;;;7.60;99.90;;;;;;5113764;28;20131;-70
2020/12/21 05:19:39;;;;;;;26.13;17.40;;;7.70;99.90;;;;;;5095544;28;20403;-70
2020/12/21 05:22:16;;;;;;;22.63;15.63;;;7.70;99.90;;;;;;5095577;28;20019;-70
2020/12/21 05:24:42;;;;;;;21.77;15.53;;;7.70;99.90;;;;;;5114068;28;20026;-70
2020/12/21 05:27:16;;;;;;;19.63;14.48;;;7.60;99.90;;;;;;5113886;28;20265;-70
2020/12/21 05:29:42;;;;;;;25.70;16.23;;;7.60;99.90;;;;;;5115239;28;20051;-69
2020/12/21 05:32:18;;;;;;;22.73;16.05;;;7.60;99.90;;;;;;5115091;28;20099;-70
2020/12/21 05:34:44;;;;;;;24.63;14.40;;;7.50;99.90;;;;;;5096830;28;20023;-70
2020/12/21 05:37:17;;;;;;;23.40;14.37;;;7.50;99.90;;;;;;5114043;28;20024;-70
2020/12/21 05:39:53;;;;;;;23.65;16.48;;;7.40;99.90;;;;;;5120134;28;20027;-70
2020/12/21 05:42:19;;;;;;;25.45;15.85;;;7.40;99.90;;;;;;5114972;28;20020;-69
2020/12/21 05:45:01;;;;;;;23.92;16.02;;;7.40;99.90;;;;;;5095869;28;20030;-69
2020/12/21 05:47:28;;;;;;;27.80;16.77;;;7.30;99.90;;;;;;5114571;28;20024;-69
2020/12/21 05:49:59;;;;;;;26.45;16.30;;;7.30;99.90;;;;;;5113973;28;20026;-69
2020/12/21 05:52:38;;;;;;;24.83;15.82;;;7.30;99.90;;;;;;5113979;28;20024;-70
2020/12/21 05:55:09;;;;;;;26.75;16.80;;;7.30;99.90;;;;;;5116339;28;20019;-69
2020/12/21 05:57:37;;;;;;;25.33;16.88;;;7.30;99.90;;;;;;5113831;28;20057;-69
2020/12/21 06:00:08;;;;;;;24.95;16.55;;;7.30;99.90;;;;;;5095161;28;20030;-69
2020/12/21 06:02:34;;;;;;;27.38;16.67;;;7.20;99.90;;;;;;5095022;28;20032;-69
2020/12/21 06:05:08;;;;;;;22.85;14.32;;;7.20;99.90;;;;;;5113545;28;20448;-69
2020/12/21 06:07:36;;;;;;;22.67;14.70;;;7.10;99.90;;;;;;5094827;28;20027;-70
2020/12/21 06:10:05;;;;;;;22.30;14.10;;;7.10;99.90;;;;;;5113213;28;20409;-70
2020/12/21 06:12:46;;;;;;;18.98;13.52;;;7.00;99.90;;;;;;5116643;28;20313;-70
2020/12/21 06:15:18;;;;;;;27.20;16.83;;;7.00;99.90;;;;;;5117376;28;20433;-70
2020/12/21 06:17:44;;;;;;;22.05;15.93;;;7.00;99.90;;;;;;5099221;28;20024;-70
2020/12/21 06:20:10;;;;;;;25.13;15.07;;;7.00;99.90;;;;;;5098721;28;20073;-69
2020/12/21 06:22:37;;;;;;;22.27;14.15;;;7.10;99.90;;;;;;5116787;28;20114;-70
2020/12/21 06:25:05;;;;;;;18.98;13.40;;;7.10;99.90;;;;;;5098625;28;20023;-70
2020/12/21 06:27:41;;;;;;;20.33;13.73;;;7.00;99.90;;;;;;5117015;28;20028;-70
2020/12/21 06:30:16;;;;;;;20.73;13.80;;;7.00;99.90;;;;;;5098428;28;20020;-70
2020/12/21 06:32:42;;;;;;;18.00;13.45;;;7.20;99.90;;;;;;5116787;28;20015;-70
2020/12/21 06:35:19;;;;;;;24.30;13.10;;;7.20;99.90;;;;;;5098135;28;20076;-70
2020/12/21 06:38:01;;;;;;;;;;;7.20;99.90;;;;;;5098700;28;20023;-71
2020/12/21 06:40:34;;;;;;;17.05;10.38;;;7.20;99.90;;;;;;5116642;28;19904;-70
2020/12/21 06:43:10;;;;;;;15.60;10.18;;;7.10;99.90;;;;;;5098234;28;20026;-70
2020/12/21 06:45:36;;;;;;;12.88;7.35;;;7.10;99.90;;;;;;5101047;28;20028;-70
2020/12/21 06:48:03;;;;;;;14.38;8.60;;;7.10;99.90;;;;;;5116751;28;20031;-71
2020/12/21 06:50:28;;;;;;;;;;;7.10;99.90;;;;;;5099073;28;20497;-69
2020/12/21 06:52:54;;;;;;;11.63;5.68;;;7.10;99.90;;;;;;5097968;28;19903;-71
2020/12/21 06:55:19;;;;;;;10.57;6.57;;;7.10;99.90;;;;;;5116137;28;20015;-70
2020/12/21 06:57:51;;;;;;;9.40;6.00;;;7.10;99.90;;;;;;5115997;28;20384;-70
2020/12/21 07:00:20;;;;;;;8.43;5.10;;;7.10;99.90;;;;;;5097530;28;20124;-70
2020/12/21 07:02:49;;;;;;;8.32;5.63;;;7.20;99.90;;;;;;5116439;28;20039;-71
2020/12/21 07:05:14;;;;;;;8.82;5.75;;;7.10;99.90;;;;;;5115518;28;20099;-73
2020/12/21 07:07:40;;;;;;;9.93;5.63;;;7.10;99.90;;;;;;5097121;28;20114;-73
2020/12/21 07:10:13;;;;;;;8.57;5.00;;;7.10;99.90;;;;;;5100492;28;20035;-72
2020/12/21 07:12:40;;;;;;;9.60;6.05;;;7.20;99.90;;;;;;5115780;28;20262;-71
2020/12/21 07:15:05;;;;;;;;;;;7.20;99.90;;;;;;5098099;28;20069;-73
2020/12/21 07:17:32;;;;;;;12.32;7.80;;;7.10;99.90;;;;;;5115383;28;19904;-72
2020/12/21 07:20:00;;;;;;;10.88;7.57;;;7.10;99.90;;;;;;5097204;28;20118;-72
2020/12/21 07:22:27;;;;;;;11.98;6.03;;;7.30;99.90;;;;;;5115256;28;20492;-72
2020/12/21 07:24:52;;;;;;;8.57;5.13;;;7.40;99.90;;;;;;5097323;28;20494;-72
2020/12/21 07:27:18;;;;;;;10.23;5.10;;;7.40;99.90;;;;;;5097464;28;20032;-73
2020/12/21 07:29:44;;;;;;;8.67;4.83;;;7.30;99.90;;;;;;5115673;28;20046;-72
2020/12/21 07:32:09;;;;;;;8.80;4.90;;;7.30;99.90;;;;;;5097897;28;20070;-73
2020/12/21 07:34:37;;;;;;;7.82;4.90;;;7.20;99.90;;;;;;5120544;28;20031;-74
2020/12/21 07:37:10;;;;;;;11.73;5.30;;;7.30;99.90;;;;;;5101945;28;20085;-73
2020/12/21 07:39:36;;;;;;;9.18;4.57;;;7.20;99.90;;;;;;5116157;28;20023;-73
2020/12/21 07:42:05;;;;;;;10.05;5.03;;;7.30;99.90;;;;;;5097734;28;20072;-72
2020/12/21 07:44:36;;;;;;;10.50;5.30;;;7.20;99.90;;;;;;5097540;28;20024;-73
2020/12/21 07:47:15;;;;;;;8.73;4.72;;;7.30;99.90;;;;;;5099489;28;20066;-73
2020/12/21 07:49:42;;;;;;;10.88;4.78;;;7.30;99.90;;;;;;5116505;28;20020;-72
2020/12/21 07:52:10;;;;;;;11.80;6.05;;;7.30;99.90;;;;;;5116526;28;20027;-74
2020/12/21 07:54:40;;;;;;;10.90;5.78;;;7.30;99.90;;;;;;5115715;28;20023;-73
2020/12/21 07:57:08;;;;;;;9.75;5.90;;;7.30;99.90;;;;;;5104832;28;20111;-73
2020/12/21 07:59:34;;;;;;;12.75;7.22;;;7.30;99.90;;;;;;5116109;28;20106;-74
2020/12/21 08:02:07;;;;;;;13.55;7.07;;;7.30;99.90;;;;;;5115672;28;20055;-74
2020/12/21 08:04:33;;;;;;;11.73;6.85;;;7.40;99.90;;;;;;5097495;28;20461;-72
2020/12/21 08:07:33;;;;;;;25.35;14.07;;;7.40;99.90;;;;;;5115470;28;20055;-71
2020/12/21 08:09:58;;;;;;;12.40;7.60;;;7.40;99.90;;;;;;5096761;28;20023;-73
2020/12/21 08:12:30;;;;;;;8.97;6.77;;;7.40;99.90;;;;;;5115315;28;20030;-72
2020/12/21 08:15:05;;;;;;;11.75;6.95;;;7.40;99.90;;;;;;5096783;28;20035;-73
2020/12/21 08:17:31;;;;;;;12.70;7.68;;;7.40;99.90;;;;;;5101252;28;20024;-73
2020/12/21 08:20:01;;;;;;;9.95;6.60;;;7.40;99.90;;;;;;5115507;28;20023;-73
2020/12/21 08:22:29;;;;;;;11.70;7.50;;;7.40;99.90;;;;;;5114692;28;20027;-72
2020/12/21 08:25:13;;;;;;;13.30;7.78;;;7.40;99.90;;;;;;5096157;28;20031;-72
2020/12/21 08:27:50;;;;;;;13.82;8.20;;;7.40;99.90;;;;;;5115076;28;20016;-74
2020/12/21 08:30:23;;;;;;;12.63;7.85;;;7.50;99.90;;;;;;5114680;28;20425;-73
2020/12/21 08:32:52;;;;;;;13.75;9.45;;;7.50;99.90;;;;;;5114495;28;20024;-73
2020/12/21 08:35:26;;;;;;;14.82;9.57;;;7.50;99.90;;;;;;5096082;28;20069;-73
2020/12/21 08:37:52;;;;;;;15.77;9.35;;;7.60;99.90;;;;;;5100093;28;20019;-74
2020/12/21 08:40:19;;;;;;;18.65;11.45;;;7.60;99.90;;;;;;5114849;28;20019;-70
2020/12/21 08:42:47;;;;;;;18.15;11.73;;;7.60;99.90;;;;;;5114351;28;20019;-70
2020/12/21 08:45:20;;;;;;;22.02;12.82;;;7.70;99.90;;;;;;5096239;28;20020;-70
2020/12/21 08:47:47;;;;;;;25.85;14.18;;;7.70;99.90;;;;;;5115199;28;20020;-71
2020/12/21 08:50:13;;;;;;;20.08;13.38;;;7.70;99.90;;;;;;5116104;28;20030;-70
2020/12/21 08:52:39;;;;;;;21.37;13.50;;;7.70;99.90;;;;;;5115372;28;20102;-74
2020/12/21 08:55:06;;;;;;;22.27;13.23;;;7.70;99.90;;;;;;5096936;28;20020;-73
2020/12/21 08:57:35;;;;;;;24.35;13.45;;;7.70;99.90;;;;;;5097164;28;20028;-72
2020/12/21 09:00:03;;;;;;;19.67;12.52;;;7.70;99.90;;;;;;5115579;28;20506;-69
2020/12/21 09:02:29;;;;;;;20.70;12.95;;;7.60;99.90;;;;;;5115147;28;20024;-71
2020/12/21 09:04:55;;;;;;;19.27;11.57;;;7.70;99.90;;;;;;5096851;28;20023;-72
2020/12/21 09:07:21;;;;;;;17.93;10.83;;;7.70;99.90;;;;;;5097614;28;20072;-70
2020/12/21 09:09:46;;;;;;;12.93;8.53;;;7.70;99.90;;;;;;5116048;28;20270;-72
2020/12/21 09:12:12;;;;;;;14.60;7.20;;;7.70;99.90;;;;;;5097118;28;20545;-72
2020/12/21 09:14:38;;;;;;;12.30;7.82;;;7.70;99.90;;;;;;5114967;28;20493;-71
2020/12/21 09:17:04;;;;;;;13.80;7.43;;;7.70;99.90;;;;;;5095622;28;20045;-69
2020/12/21 09:19:29;;;;;;;13.50;8.17;;;7.70;99.90;;;;;;5095666;28;20100;-71
2020/12/21 09:21:55;;;;;;;18.37;8.03;;;7.80;99.90;;;;;;5116626;28;20030;-73
2020/12/21 09:24:20;;;;;;;9.73;5.47;;;7.80;99.90;;;;;;5116542;28;20065;-72
2020/12/21 09:26:47;;;;;;;10.43;6.73;;;7.80;99.90;;;;;;5096365;28;20068;-71
2020/12/21 09:29:12;;;;;;;11.38;5.78;;;7.80;99.90;;;;;;5115159;28;20047;-74
2020/12/21 09:31:38;;;;;;;9.63;5.60;;;7.70;99.90;;;;;;5105386;28;20032;-76
2020/12/21 09:34:04;;;;;;;9.87;5.97;;;7.70;99.90;;;;;;5105338;28;20054;-74
2020/12/21 09:36:32;;;;;;;10.40;5.80;;;7.70;99.90;;;;;;5103266;28;20061;-73
2020/12/21 09:38:58;;;;;;;9.88;5.97;;;7.70;99.90;;;;;;5101458;28;20062;-70
2020/12/21 09:41:25;;;;;;;10.07;5.90;;;7.70;99.90;;;;;;5116864;28;20083;-71
2020/12/21 09:43:52;;;;;;;9.68;5.63;;;7.80;99.90;;;;;;5115537;28;20020;-75
2020/12/21 09:46:23;;;;;;;10.48;5.68;;;7.90;99.90;;;;;;5115889;28;20020;-71
2020/12/21 09:48:52;;;;;;;9.45;5.22;;;7.90;99.90;;;;;;5101312;28;20460;-71
2020/12/21 09:51:19;;;;;;;8.77;5.43;;;8.00;99.90;;;;;;5108517;28;20176;-74
2020/12/21 09:53:44;;;;;;;6.43;4.25;;;8.00;99.90;;;;;;5110889;28;20581;-74
2020/12/21 09:56:11;;;;;;;10.23;4.70;;;8.00;99.90;;;;;;5120770;28;20055;-70
2020/12/21 09:58:37;;;;;;;10.35;4.43;;;8.00;99.90;;;;;;5099535;28;20034;-70
2020/12/21 10:01:04;;;;;;;6.05;3.75;;;8.10;99.90;;;;;;5099275;28;20024;-71
2020/12/21 10:03:30;;;;;;;5.60;3.28;;;8.10;99.90;;;;;;5117261;28;20560;-66
2020/12/21 10:05:55;;;;;;;10.53;4.00;;;8.10;99.90;;;;;;5097541;28;20035;-65
2020/12/21 10:08:21;;;;;;;6.13;3.40;;;8.10;99.90;;;;;;5116905;28;20028;-67
2020/12/21 10:10:48;;;;;;;8.50;3.93;;;8.20;99.90;;;;;;5116638;28;20039;-67
2020/12/21 10:13:14;;;;;;;10.40;3.83;;;8.10;99.90;;;;;;5116926;28;20019;-66
2020/12/21 10:15:40;;;;;;;9.32;5.07;;;8.10;99.90;;;;;;5116712;28;20066;-67
2020/12/21 10:18:06;;;;;;;5.43;3.90;;;8.00;99.90;;;;;;5116650;28;20098;-66
2020/12/21 10:20:32;;;;;;;5.78;4.03;;;8.00;99.90;;;;;;5117011;28;20483;-66
2020/12/21 10:22:57;;;;;;;7.10;4.47;;;7.90;99.90;;;;;;5116889;28;20024;-66
2020/12/21 10:25:23;;;;;;;8.57;4.10;;;7.80;99.90;;;;;;5116742;28;20058;-65
2020/12/21 10:27:50;;;;;;;11.70;6.67;;;7.80;99.90;;;;;;5117546;28;20034;-65
2020/12/21 10:30:16;;;;;;;11.85;4.47;;;7.90;99.90;;;;;;5116845;28;20019;-65
2020/12/21 10:32:43;;;;;;;7.55;4.43;;;7.90;99.90;;;;;;5116472;28;20028;-65
2020/12/21 10:35:09;;;;;;;9.63;4.78;;;7.90;99.90;;;;;;5116670;28;20479;-66
2020/12/21 10:37:35;;;;;;;;;;;7.90;99.90;;;;;;5118582;28;20023;-66
2020/12/21 10:40:00;;;;;;;10.18;4.63;;;7.90;99.90;;;;;;5098666;28;20324;-66
2020/12/21 10:42:26;;;;;;;8.50;4.73;;;8.00;99.90;;;;;;5116526;28;20052;-66
2020/12/21 10:44:52;;;;;;;7.70;4.40;;;8.10;99.90;;;;;;5116442;28;20027;-65
2020/12/21 10:47:18;;;;;;;9.02;4.10;;;8.10;99.90;;;;;;5116208;28;20035;-67
2020/12/21 10:49:43;;;;;;;6.83;4.33;;;8.20;99.90;;;;;;5116340;28;20032;-66
2020/12/21 10:52:13;;;;;;;7.87;4.47;;;8.20;99.90;;;;;;5116204;28;20361;-73
2020/12/21 10:54:38;;;;;;;7.70;4.10;;;8.30;99.90;;;;;;5098191;28;20023;-74
2020/12/21 10:57:06;;;;;;;7.37;4.10;;;8.30;99.90;;;;;;5097713;28;20430;-74
2020/12/21 10:59:32;;;;;;;8.25;4.43;;;8.30;99.90;;;;;;5099062;28;20031;-74
2020/12/21 11:01:58;;;;;;;9.90;5.38;;;8.30;99.90;;;;;;5098122;28;20122;-74
2020/12/21 11:04:23;;;;;;;8.13;4.70;;;8.30;99.90;;;;;;5116275;28;20054;-74
2020/12/21 11:06:49;;;;;;;8.53;4.77;;;8.40;99.90;;;;;;5098376;28;20030;-73
2020/12/21 11:09:15;;;;;;;11.20;5.40;;;8.40;99.90;;;;;;5098417;28;20020;-74
2020/12/21 11:11:40;;;;;;;6.73;5.07;;;8.30;99.90;;;;;;5098389;28;20373;-73
2020/12/21 11:14:08;;;;;;;7.03;5.10;;;8.30;99.90;;;;;;5098020;28;20034;-74
2020/12/21 11:16:35;;;;;;;9.13;5.60;;;8.40;99.90;;;;;;5098417;28;20045;-75
2020/12/21 11:19:00;;;;;;;8.30;4.90;;;8.40;99.90;;;;;;5109063;28;20027;-74
2020/12/21 11:21:26;;;;;;;12.47;5.33;;;8.30;99.90;;;;;;5100561;28;20072;-74
2020/12/21 11:23:52;;;;;;;11.53;5.73;;;8.30;99.90;;;;;;5098399;28;20024;-74
2020/12/21 11:26:19;;;;;;;8.83;5.80;;;8.30;99.90;;;;;;5116659;28;20384;-74
2020/12/21 11:28:48;;;;;;;10.07;4.75;;;8.30;99.90;;;;;;5098192;28;20583;-73
2020/12/21 11:31:17;;;;;;;11.98;7.18;;;8.40;99.90;;;;;;5118036;28;20106;-73
2020/12/21 11:33:43;;;;;;;11.93;6.30;;;8.40;99.90;;;;;;5097762;28;20127;-74
2020/12/21 11:36:09;;;;;;;;;;;8.50;99.90;;;;;;5117854;28;20027;-74
2020/12/21 11:38:35;;;;;;;10.63;5.72;;;8.70;99.90;;;;;;5101538;28;19914;-73
2020/12/21 11:41:00;;;;;;;10.40;5.03;;;8.90;99.90;;;;;;5101548;28;20411;-73
2020/12/21 11:43:26;;;;;;;7.87;5.33;;;9.00;99.90;;;;;;5097530;28;20096;-74
2020/12/21 11:45:54;;;;;;;8.60;4.83;;;9.10;99.90;;;;;;5100022;28;20069;-74
2020/12/21 11:48:19;;;;;;;8.82;4.97;;;9.10;99.90;;;;;;5097531;28;20622;-74
2020/12/21 11:50:45;;;;;;;9.10;4.70;;;9.30;99.90;;;;;;5097030;28;20019;-73
2020/12/21 11:53:10;;;;;;;8.27;5.67;;;9.30;99.90;;;;;;5096867;28;20028;-73
2020/12/21 11:55:36;;;;;;;7.63;5.13;;;9.30;99.90;;;;;;5096883;28;20508;-71
2020/12/21 11:58:02;;;;;;;8.13;5.20;;;9.40;99.90;;;;;;5096552;28;20023;-70
2020/12/21 12:00:28;;;;;;;13.73;6.43;;;9.40;99.90;;;;;;5115111;28;20030;-70
2020/12/21 12:02:53;;;;;;;11.07;6.37;;;9.30;99.90;;;;;;5114842;28;20020;-74
2020/12/21 12:05:19;;;;;;;8.50;5.90;;;9.30;99.90;;;;;;5096403;28;20746;-71
2020/12/21 12:07:45;;;;;;;10.00;5.37;;;9.20;99.90;;;;;;5096606;28;20019;-71
2020/12/21 12:10:10;;;;;;;9.43;5.40;;;9.00;99.90;;;;;;5114145;28;20520;-71
2020/12/21 12:12:36;;;;;;;10.53;5.33;;;8.90;99.90;;;;;;5114730;28;20336;-71
2020/12/21 12:15:02;;;;;;;11.50;5.57;;;9.00;99.90;;;;;;5096027;28;20027;-71
2020/12/21 12:17:28;;;;;;;10.38;6.03;;;9.00;99.90;;;;;;5114474;28;20024;-72
2020/12/21 12:19:54;;;;;;;11.88;6.32;;;9.00;99.90;;;;;;5096252;28;20019;-70
2020/12/21 12:22:20;;;;;;;10.65;5.65;;;9.00;99.90;;;;;;5114276;28;20035;-70
2020/12/21 12:24:46;;;;;;;10.33;5.63;;;9.10;99.90;;;;;;5096031;28;20019;-70
2020/12/21 12:27:14;;;;;;;9.90;5.40;;;9.00;99.90;;;;;;5096388;28;20408;-71
2020/12/21 12:29:39;;;;;;;11.40;5.60;;;9.10;99.90;;;;;;5097060;28;20024;-72
2020/12/21 12:32:05;;;;;;;9.77;5.27;;;9.30;99.90;;;;;;5115040;28;20034;-72
2020/12/21 12:34:32;;;;;;;9.13;5.33;;;9.40;99.90;;;;;;5100078;28;20031;-70
2020/12/21 12:36:57;;;;;;;22.67;6.50;;;9.60;99.90;;;;;;5115418;28;20094;-70
2020/12/21 12:39:23;;;;;;;13.20;6.27;;;9.70;99.90;;;;;;5095884;28;20118;-71
2020/12/21 12:41:49;;;;;;;10.43;5.27;;;9.80;99.90;;;;;;5114438;28;20130;-70
2020/12/21 12:44:14;;;;;;;11.23;5.90;;;9.90;99.90;;;;;;5114648;28;20031;-71
2020/12/21 12:46:40;;;;;;;13.87;4.57;;;9.90;99.90;;;;;;5115233;28;20500;-71